METAR Data
IDs: Format: Raw Decoded Include TAF

Data at: 0823 UTC 20 Sep 2018

KEWB 200753Z AUTO 34003KT 10SM FEW023 SCT032 BKN039 14/14 A3009 RMK AO2 SLP190 T01390139
KEWB 200653Z AUTO 34003KT 10SM FEW038 13/13 A3008 RMK AO2 SLP187 T01330133
KEWB 200553Z AUTO 00000KT 10SM FEW022 SCT027 BKN036 14/14 A3009 RMK AO2 SLP189 T01390139 10161 20133 53010
KEWB 200505Z AUTO 31004KT 10SM BKN023 14/14 A3009 RMK AO2 T01390139
KEWB 200453Z AUTO 32003KT 10SM FEW022 14/14 A3009 RMK AO2 SLP188 T01390139 402000133
KEWB 200353Z AUTO 02003KT 10SM FEW023 14/14 A3005 RMK AO2 SLP177 T01440139
KEWB 200337Z AUTO 01004KT 10SM FEW021 SCT028 15/14 A3006 RMK AO2 T01500139
KEWB 200303Z AUTO 36004KT 10SM SCT022 BKN027 15/14 A3006 RMK AO2 T01500139
KEWB 200253Z AUTO 01004KT 10SM SCT027 15/13 A3006 RMK AO2 SLP179 T01500133 51010
KEWB 200202Z AUTO 03008KT 10SM SCT019 SCT030 16/14 A3005 RMK AO2 T01560139
KEWB 200153Z 03005KT 10SM BKN019 BKN028 16/14 A3005 RMK AO2 SLP175 LAST AUGMENTED OBS T01560144
KEWB 200053Z 03005KT 10SM OVC023 16/14 A3004 RMK AO2 SLP173 T01610139
KEWB 192353Z 02005KT 10SM OVC020 16/14 A3003 RMK AO2 SLP169 T01610144 10194 20161 51015
KEWB 192253Z 03008KT 10SM OVC018 16/14 A3002 RMK AO2 SLP164 T01610144
KEWB 192249Z 02005KT 10SM OVC018 16/15 A3002 RMK AO2
KEWB 192238Z VRB05KT 10SM BKN014 OVC021 16/15 A3002 RMK AO2 T01610150
KEWB 192153Z 02008KT 10SM OVC016 17/15 A2999 RMK AO2 SLP154 T01670150
KEWB 192053Z 03009KT 10SM OVC019 18/16 A2996 RMK AO2 SLP145 T01780156 53007
KEWB 192005Z 03009G16KT 10SM BKN015 19/17 A2995 RMK AO2 T01890167
KEWB 191953Z 02009KT 10SM OVC014 18/16 A2995 RMK AO2 SLP140 T01780161
KEWB 191910Z 03008KT 10SM OVC014 18/16 A2994 RMK AO2 T01830161
KEWB 191853Z VRB06G16KT 10SM OVC015 19/17 A2994 RMK AO2 SLP138 T01890167
KEWB 191850Z 03010G17KT 10SM OVC015 19/17 A2994 RMK AO2
KEWB 191753Z 05009KT 10SM BKN013 OVC031 19/17 A2993 RMK AO2 SLP135 60000 T01940172 10200 20183 50006
KEWB 191653Z 04011G18KT 10SM OVC013 20/18 A2993 RMK AO2 RAE1554B12E21 SLP136 P0000 T02000178
KEWB 191553Z 03013KT 10SM -RA SCT009 BKN014 OVC019 19/18 A2992 RMK AO2 RAB03E12B41 SLP132 P0000 T01940178
KEWB 191550Z 02010G18KT 9SM -RA BKN009 OVC017 19/18 A2992 RMK AO2 RAB03E12B41 P0000
KEWB 191536Z 02009G18KT 10SM BKN011 OVC016 19/18 A2992 RMK AO2 RAB03E12 P0000 T01940183
KEWB 191529Z 03014G18KT 10SM SCT008 OVC015 19/18 A2992 RMK AO2 RAB03E12 P0000 T01940183
KEWB 191453Z 02008KT 4SM BR BKN007 OVC011 19/18 A2991 RMK AO2 SLP129 T01890183 51022
KEWB 191445Z 02011G16KT 2 1/2SM BR OVC007 18/18 A2991 RMK AO2 T01830183
KEWB 191353Z 02010G15KT 5SM BR OVC007 18/18 A2989 RMK AO2 SLP121 T01830183
KEWB 191253Z 04011G15KT 9SM BKN006 OVC011 19/19 A2987 RMK AO2 SLP114 T01890189
KEWB 191210Z 03007KT 5SM BR OVC007 19/19 A2985 RMK AO2 T01890189
KEWB 191153Z 02004KT 2 1/2SM BR OVC005 19/19 A2985 RMK AO2 RAB19E47 SLP107 P0001 60001 70095 T01890189 10194 20183 51024
KEWB 191140Z 01006KT 2 1/2SM -RA BR OVC004 19/19 A2984 RMK AO2 RAB19 P0001 T01890189
KEWB 191127Z 01006KT 1 3/4SM -RA BR OVC004 19/19 A2984 RMK AO2 RAB19 P0000 T01940194
KEWB 191053Z 00000KT 10SM OVC003 19/19 A2983 RMK AO2 SLP100 T01890189 $
KEWB 191040Z 01003KT 7SM OVC003 19/19 A2982 RMK AO2 T01890189 $
KEWB 191033Z 01003KT 2 1/2SM BR OVC003 19/19 A2982 RMK AO2 T01890189 $
KEWB 191013Z 02003KT 3SM BR OVC003 19/19 A2981 RMK AO2 T01890189 $
KEWB 191004Z AUTO 03003KT 1SM R05/4000VP6000FT BR VV003 19/19 A2980 RMK AO2 T01890189 $
KEWB 190953Z AUTO 04003KT 3/4SM R05/2200V3500FT BR VV003 19/19 A2980 RMK AO2 SLP089 T01890189 $
KEWB 190939Z AUTO 02003KT 1/2SM R05/1400V3000FT FG VV002 19/19 A2979 RMK AO2 T01890189 $
KEWB 190906Z AUTO 00000KT 1/4SM R05/1200V1800FT FG VV002 19/19 A2977 RMK AO2 T01890189 $
KEWB 190853Z AUTO 00000KT 1/2SM R05/1800V2200FT FG VV002 19/19 A2978 RMK AO2 SLP083 T01890189 53004 $
KEWB 190835Z AUTO 00000KT 1/2SM R05/1800V3500FT FG VV002 19/19 A2977 RMK AO2 T01890189 $
KEWB 190816Z AUTO 00000KT 1/4SM R05/2000V2800FT FG VV002 19/19 A2977 RMK AO2 T01890189 $
KEWB 190807Z AUTO 00000KT 1/2SM R05/2000V2200FT FG VV002 19/19 A2976 RMK AO2 T01890189 $
KEWB 190753Z AUTO 00000KT 1/2SM R05/1800V2400FT FG VV002 18/18 A2976 RMK AO2 SLP078 T01830183 $
KEWB 190744Z AUTO 00000KT 1/4SM R05/1600V1800FT FG VV002 18/18 A2977 RMK AO2 T01830183 $
KEWB 190733Z AUTO 00000KT 1/2SM R05/1600V2000FT FG VV003 18/18 A2977 RMK AO2 T01830183 $
KEWB 190716Z AUTO 00000KT 1/2SM R05/1600V2400FT FG VV003 18/18 A2977 RMK AO2 T01830183 $
KEWB 190653Z AUTO 00000KT 1/4SM R05/1000V1400FT FG VV002 18/18 A2977 RMK AO2 SLP080 T01830183 $
KEWB 190553Z AUTO 00000KT 1/4SM R05/1400V2000FT FG VV002 19/19 A2976 RMK AO2 SLP079 T01890189 10211 20183 53003 $
KEWB 190549Z AUTO 00000KT 1/4SM R05/1600V2200FT FG VV002 19/19 A2977 RMK AO2 $
KEWB 190535Z AUTO 00000KT 1/2SM R05/1800V2200FT FG VV002 19/19 A2976 RMK AO2 T01890189 $
KEWB 190514Z AUTO 00000KT 1/2SM R05/1800V4000FT FG VV002 18/18 A2975 RMK AO2 T01830183 $
KEWB 190453Z AUTO 00000KT 1/2SM R05/1400V1600FT FG VV002 19/19 A2975 RMK AO2 SLP074 T01890189 402500189 $
KEWB 190432Z AUTO 00000KT 1/2SM R05/1400V2000FT FG VV002 19/19 A2975 RMK AO2 T01890189 $
KEWB 190409Z AUTO 00000KT 1/4SM R05/1200V1600FT FG VV002 19/19 A2975 RMK AO2 T01890189 $
KEWB 190402Z AUTO 00000KT 1/4SM R05/1400V2400FT FG VV002 19/19 A2975 RMK AO2 T01890189 $
KEWB 190353Z AUTO 00000KT 1/2SM R05/2400V5500FT FG VV002 19/19 A2976 RMK AO2 SLP075 T01890189 $
KEWB 190349Z AUTO 00000KT 1/2SM R05/3500V6000FT FG VV002 19/19 A2976 RMK AO2 $
KEWB 190335Z AUTO 00000KT 1 1/4SM R05/2600V3500FT BR OVC002 19/19 A2975 RMK AO2 T01940194 $
KEWB 190253Z AUTO 00000KT 3/4SM R05/3000V5500FT BR VV002 19/19 A2976 RMK AO2 SLP078 T01940194 51007 $
KEWB 190245Z AUTO 00000KT 1/2SM R05/2000V3000FT FG VV002 19/19 A2977 RMK AO2 T01940194 $
KEWB 190233Z AUTO 00000KT 1/2SM R05/1800V2200FT FG VV002 19/19 A2976 RMK AO2 T01940194 $
KEWB 190209Z AUTO 00000KT 1/2SM R05/2000V3000FT FG VV002 20/20 A2975 RMK AO2 T02000200
KEWB 190200Z AUTO 00000KT 1SM R05/2800V4500FT BR OVC002 20/20 A2975 RMK AO2 T02000200
KEWB 190153Z 00000KT 2SM R05/4000VP6000FT BR OVC003 21/21 A2975 RMK AO2 VIS 1V3 SLP074 LAST AUGMENTED OBS T02060206
KEWB 190126Z 00000KT 10SM OVC003 21/21 A2976 RMK AO2 T02060206
KEWB 190053Z 00000KT 10SM OVC005 21/21 A2976 RMK AO2 SLP076 T02060206
KEWB 182353Z 00000KT 10SM OVC005 21/21 A2974 RMK AO2 RAB22E31 SLP070 P0000 60089 T02110211 10244 20211 53003
KEWB 182307Z AUTO 04004KT 10SM SCT006 OVC120 21/21 A2972 RMK AO2 T02110211
KEWB 182253Z AUTO 08003KT 10SM BKN007 21/21 A2973 RMK AO2 RAE2159 SLP066 P0000 T02110211
KEWB 182156Z 00000KT 10SM -RA SCT007 SCT012 OVC047 21/21 A2973 RMK AO2 P0000 T02110211
KEWB 182153Z 02003KT 10SM -RA SCT009 BKN013 OVC047 21/21 A2973 RMK AO2 SLP067 P0001 T02110211
KEWB 182143Z 01003KT 10SM -RA SCT007 SCT012 OVC047 21/21 A2973 RMK AO2 LTG DSNT S P0001 T02110211
KEWB 182104Z 35004KT 10SM -RA BKN007 BKN010 OVC022 22/22 A2973 RMK AO2 LTG DSNT S AND SW P0000 T02220222
KEWB 182053Z 36004KT 7SM RA BKN008 OVC020 22/22 A2973 RMK AO2 LTG DSNT S SLP068 P0014 60088 T02220222 50001
KEWB 182050Z 00000KT 7SM RA BKN008 OVC020 22/22 A2973 RMK AO2 LTG DSNT SE AND S P0014
KEWB 182025Z 00000KT 3SM RA BR FEW009 OVC018 22/22 A2974 RMK AO2 LTG DSNT E-SW P0008 T02220222